METAR AND TAF INFORMATION
METAR FOR LATI
ADDS - METARS form results

(1753 UTC 23 June 2018)
Data provider http://aviationweather.gov/adds/metars/
 
METAR text: LATI 231750Z VRB01KT 9999 SCT057 23/14 Q1013 NOSIG
Conditions at: LATI (TIRANA , AL) observed 1750 UTC 23 June 2018
Temperature: 23.0°C (73°F)
Dewpoint: 14.0°C (57°F) [RH = 57%]
Pressure (altimeter): 29.91 inches Hg (1013.0 mb)
Winds: variable direction winds at 1 MPH (1 knots; 0.5 m/s)
Visibility: 6 or more miles (10+ km)
Ceiling: at least 12,000 feet AGL
Clouds: scattered clouds at 5700 feet AGL
Weather: no significant weather observed at this time

METAR text: LATI 231720Z 31007KT 260V350 9999 SCT055 24/13 Q1013 NOSIG
Conditions at: LATI (TIRANA , AL) observed 1720 UTC 23 June 2018
Temperature: 24.0°C (75°F)
Dewpoint: 13.0°C (55°F) [RH = 50%]
Pressure (altimeter): 29.91 inches Hg (1013.0 mb)
Winds: from the NW (310 degrees) at 8 MPH (7 knots; 3.6 m/s)
Visibility: 6 or more miles (10+ km)
Ceiling: at least 12,000 feet AGL
Clouds: scattered clouds at 5500 feet AGL
Weather: no significant weather observed at this time

Forecast for: LATI (TIRANA , AL)
Text: TAF LATI 231700Z 2318/2418 VRB05KT CAVOK
Forecast period: 1800 UTC 23 June 2018 to 1800 UTC 24 June 2018
Forecast type: FROM: standard forecast or significant change
Winds: variable direction winds at 6 MPH (5 knots; 2.6 m/s)
Visibility: 6 or more miles (10+ km)
Clouds: not forecast
Weather: NSW  (no significant weather)
Text: TEMPO 2410/2418 32010KT FEW040 SCT100
Forecast period: 1000 to 1800 UTC 24 June 2018
Forecast type: TEMPORARY: The following changes expected for less than half the time period
Winds: from the NW (320 degrees) at 12 MPH (10 knots; 5.2 m/s)
Clouds: few clouds at 4000 feet AGL
scattered clouds at 10000 feet AGL
Weather: no significant weather forecast for this period

 AIRPORT MAP

 RUNWAY INFORMATION
Runway 18 Runway length 8971 ft Runway width 148 ft
Runway elevation 109 ft Runway displaced threshold 0 ft Runway heading 174
Runway 36 Runway length 8971 ft Runway width 148 ft
Runway elevation 126 ft Runway displaced threshold 0 ft Runway heading 354

 AIRPORT FREQUENCIES
Type ACC Name ACC Frequency 127.5 MHZ
Type APP Name APP Frequency 133.15 MHZ
Type TWR Name TWR Frequency 122.5 MHZ

 AIRPORT NEAR NAVIGATION AIDS
Type NDB Name Tirana Frequency 290 KHZ
Type VOR-DME Name Tirana Frequency 117700 KHZ



Powered by Virtual Airlines Manager [v2.6.2]